createdAt,value
2023-02-06T00:00:57.745Z,41.60
2023-02-06T00:01:57.727Z,56.40
2023-02-06T00:02:57.715Z,48.80
2023-02-06T00:03:57.705Z,52.00
2023-02-06T00:04:57.708Z,50.10
2023-02-06T00:05:57.831Z,50.90
2023-02-06T00:06:57.675Z,43.90
2023-02-06T00:07:57.664Z,53.10
2023-02-06T00:08:57.651Z,42.10
2023-02-06T00:09:57.639Z,47.90
2023-02-06T00:10:57.630Z,50.80
2023-02-06T00:11:57.620Z,48.10
2023-02-06T00:12:57.606Z,51.70
2023-02-06T00:13:57.622Z,43.80
2023-02-06T00:14:57.587Z,44.80
2023-02-06T00:15:57.595Z,36.50
2023-02-06T00:16:57.574Z,51.30
2023-02-06T00:17:57.552Z,61.20
2023-02-06T00:18:57.542Z,51.00
2023-02-06T00:19:57.531Z,43.10
2023-02-06T00:20:57.519Z,52.10
2023-02-06T00:21:57.512Z,55.80
2023-02-06T00:22:57.497Z,48.40
2023-02-06T00:23:57.485Z,50.70
2023-02-06T00:24:57.476Z,55.90
2023-02-06T00:25:57.466Z,54.50
2023-02-06T00:26:57.455Z,52.00
2023-02-06T00:27:57.457Z,54.80
2023-02-06T00:28:57.437Z,59.70
2023-02-06T00:29:57.451Z,52.70
2023-02-06T00:30:57.500Z,48.80
2023-02-06T00:31:57.400Z,53.00
2023-02-06T00:32:57.397Z,49.10
2023-02-06T00:33:57.379Z,50.10
2023-02-06T00:34:57.366Z,54.10
2023-02-06T00:35:57.358Z,51.30
2023-02-06T00:36:57.347Z,53.90
2023-02-06T00:37:57.336Z,47.30
2023-02-06T00:38:57.337Z,48.10
2023-02-06T00:39:57.315Z,51.80
2023-02-06T00:40:57.305Z,48.70
2023-02-06T00:41:57.291Z,53.50
2023-02-06T00:42:57.286Z,60.20
2023-02-06T00:43:57.273Z,44.40
2023-02-06T00:44:57.262Z,39.10
2023-02-06T00:45:57.280Z,55.90
2023-02-06T00:46:57.239Z,41.00
2023-02-06T00:47:57.226Z,51.80
2023-02-06T00:48:57.227Z,48.90
2023-02-06T00:49:57.205Z,53.40
2023-02-06T00:50:57.194Z,57.80
2023-02-06T00:51:57.191Z,59.00
2023-02-06T00:52:57.173Z,44.90
2023-02-06T00:53:57.160Z,57.30
2023-02-06T00:54:57.149Z,61.50
2023-02-06T00:55:57.143Z,38.00
2023-02-06T00:56:57.130Z,49.70
2023-02-06T00:57:57.117Z,49.60
2023-02-06T00:58:57.108Z,50.80
2023-02-06T00:59:57.099Z,51.60
2023-02-06T01:00:57.111Z,53.00
2023-02-06T01:01:57.179Z,46.80
2023-02-06T01:02:57.101Z,41.90
2023-02-06T01:03:57.057Z,52.70
2023-02-06T01:04:57.038Z,56.20
2023-02-06T01:05:57.024Z,51.90
2023-02-06T01:06:57.017Z,48.10
2023-02-06T01:07:57.015Z,47.30
2023-02-06T01:08:56.991Z,43.50
2023-02-06T01:09:56.979Z,51.60
2023-02-06T01:10:56.968Z,50.40
2023-02-06T01:11:56.959Z,48.00
2023-02-06T01:12:56.946Z,48.50
2023-02-06T01:13:56.937Z,36.50
2023-02-06T01:14:56.927Z,44.30
2023-02-06T01:15:56.953Z,54.60
2023-02-06T01:16:56.904Z,49.40
2023-02-06T01:17:56.936Z,52.10
2023-02-06T01:18:56.885Z,58.10
2023-02-06T01:19:56.866Z,53.80
2023-02-06T01:20:56.861Z,41.80
2023-02-06T01:21:56.844Z,47.90
2023-02-06T01:22:56.836Z,57.20
2023-02-06T01:23:56.829Z,60.60
2023-02-06T01:24:56.810Z,58.40
2023-02-06T01:25:56.800Z,47.50
2023-02-06T01:26:56.789Z,37.30
2023-02-06T01:27:56.801Z,53.50
2023-02-06T01:28:56.777Z,52.70
2023-02-06T01:29:56.752Z,57.10
2023-02-06T01:30:56.881Z,43.50
2023-02-06T01:31:56.739Z,51.30
2023-02-06T01:32:56.724Z,41.10
2023-02-06T01:33:56.785Z,49.90
2023-02-06T01:34:56.697Z,45.00
2023-02-06T01:35:56.686Z,47.60
2023-02-06T01:36:56.679Z,48.20
2023-02-06T01:37:56.679Z,48.10
2023-02-06T01:38:56.653Z,47.90
2023-02-06T01:39:56.643Z,48.20
2023-02-06T01:40:56.631Z,40.60
2023-02-06T01:41:56.618Z,56.70
2023-02-06T01:42:56.619Z,46.50
2023-02-06T01:43:56.597Z,40.60
2023-02-06T01:44:56.588Z,51.50
2023-02-06T01:45:56.580Z,53.90
2023-02-06T01:46:56.702Z,51.50
2023-02-06T01:47:56.556Z,44.20
2023-02-06T01:48:56.543Z,42.50
2023-02-06T01:49:56.647Z,44.80
2023-02-06T01:50:56.536Z,39.50
2023-02-06T01:51:56.508Z,49.40
2023-02-06T01:52:56.497Z,41.60
2023-02-06T01:53:56.489Z,47.80
2023-02-06T01:54:56.481Z,59.70
2023-02-06T01:55:56.464Z,45.10
2023-02-06T01:56:56.465Z,53.10
2023-02-06T01:57:56.450Z,45.60
2023-02-06T01:58:56.432Z,45.30
2023-02-06T01:59:56.419Z,47.50
2023-02-06T02:00:56.434Z,52.80
2023-02-06T02:01:56.427Z,51.40
2023-02-06T02:02:56.387Z,41.40
2023-02-06T02:03:56.380Z,39.70
2023-02-06T02:04:56.369Z,43.40
2023-02-06T02:05:56.451Z,49.20
2023-02-06T02:06:56.343Z,41.80
2023-02-06T02:07:56.331Z,38.50
2023-02-06T02:08:58.254Z,50.10
2023-02-06T02:09:56.314Z,49.40
2023-02-06T02:10:56.300Z,48.60
2023-02-06T02:11:56.291Z,50.90
2023-02-06T02:12:56.278Z,38.30
2023-02-06T02:13:56.269Z,51.30
2023-02-06T02:14:56.266Z,49.10
2023-02-06T02:15:56.266Z,47.80
2023-02-06T02:16:56.238Z,42.90
2023-02-06T02:17:56.231Z,53.80
2023-02-06T02:18:56.219Z,55.40
2023-02-06T02:19:56.203Z,46.60
2023-02-06T02:20:56.196Z,62.10
2023-02-06T02:21:56.220Z,38.40
2023-02-06T02:22:56.184Z,51.30
2023-02-06T02:23:56.160Z,38.80
2023-02-06T02:24:56.166Z,42.50
2023-02-06T02:25:56.144Z,48.50
2023-02-06T02:26:56.132Z,47.40
2023-02-06T02:27:56.201Z,44.50
2023-02-06T02:28:56.106Z,44.80
2023-02-06T02:29:56.096Z,58.80
2023-02-06T02:30:56.118Z,44.70
2023-02-06T02:31:56.074Z,46.90
2023-02-06T02:32:56.065Z,50.30
2023-02-06T02:33:56.074Z,49.40
2023-02-06T02:34:56.046Z,39.40
2023-02-06T02:35:56.032Z,44.50
2023-02-06T02:36:56.023Z,45.50
2023-02-06T02:37:56.036Z,42.00
2023-02-06T02:38:55.998Z,45.10
2023-02-06T02:39:55.984Z,55.70
2023-02-06T02:40:55.974Z,47.90
2023-02-06T02:41:55.965Z,49.30
2023-02-06T02:42:55.956Z,49.30
2023-02-06T02:43:55.943Z,47.50
2023-02-06T02:44:55.931Z,40.30
2023-02-06T02:45:55.978Z,53.80
2023-02-06T02:46:55.915Z,37.80
2023-02-06T02:47:55.894Z,48.30
2023-02-06T02:48:55.886Z,52.00
2023-02-06T02:49:55.874Z,40.60
2023-02-06T02:50:55.868Z,45.00
2023-02-06T02:51:55.849Z,48.10
2023-02-06T02:52:55.840Z,45.30
2023-02-06T02:53:55.905Z,45.50
2023-02-06T02:54:55.823Z,52.40
2023-02-06T02:55:55.809Z,38.10
2023-02-06T02:56:55.800Z,45.20
2023-02-06T02:57:55.789Z,46.70
2023-02-06T02:58:55.772Z,43.00
2023-02-06T02:59:55.760Z,43.20
2023-02-06T03:00:55.770Z,51.30
2023-02-06T03:01:55.747Z,48.60
2023-02-06T03:02:55.729Z,52.30
2023-02-06T03:03:55.720Z,44.60
2023-02-06T03:04:55.707Z,50.40
2023-02-06T03:05:55.693Z,53.20
2023-02-06T03:06:55.683Z,49.30
2023-02-06T03:07:55.670Z,44.30
2023-02-06T03:08:55.763Z,37.40
2023-02-06T03:09:55.668Z,48.60
2023-02-06T03:10:55.639Z,41.30
2023-02-06T03:11:55.675Z,47.80
2023-02-06T03:12:55.618Z,41.60
2023-02-06T03:13:55.604Z,52.80
2023-02-06T03:14:55.751Z,47.70
2023-02-06T03:15:55.597Z,43.00
2023-02-06T03:16:55.586Z,50.10
2023-02-06T03:17:55.559Z,41.00
2023-02-06T03:18:55.552Z,43.10
2023-02-06T03:19:55.537Z,44.40
2023-02-06T03:20:55.533Z,39.00
2023-02-06T03:21:55.516Z,49.80
2023-02-06T03:22:55.507Z,41.10
2023-02-06T03:23:55.495Z,40.50
2023-02-06T03:24:55.494Z,41.60
2023-02-06T03:25:55.500Z,35.90
2023-02-06T03:26:55.467Z,42.20
2023-02-06T03:27:55.557Z,40.60
2023-02-06T03:28:55.453Z,39.90
2023-02-06T03:29:55.436Z,45.30
2023-02-06T03:30:55.437Z,48.40
2023-02-06T03:31:55.506Z,49.50
2023-02-06T03:32:55.397Z,49.00
2023-02-06T03:33:55.386Z,46.40
2023-02-06T03:34:55.378Z,48.70
2023-02-06T03:35:55.385Z,38.80
2023-02-06T03:36:55.353Z,48.70
2023-02-06T03:37:55.342Z,47.40
2023-02-06T03:38:55.338Z,48.90
2023-02-06T03:39:55.321Z,56.20
2023-02-06T03:40:55.310Z,35.60
2023-02-06T03:41:55.322Z,39.40
2023-02-06T03:42:55.292Z,47.40
2023-02-06T03:43:55.434Z,45.50
2023-02-06T03:44:55.265Z,37.70
2023-02-06T03:45:55.330Z,40.40
2023-02-06T03:46:55.242Z,45.00
2023-02-06T03:47:55.234Z,40.50
2023-02-06T03:48:55.222Z,42.80
2023-02-06T03:49:55.210Z,44.20
2023-02-06T03:50:55.200Z,51.80
2023-02-06T03:51:55.191Z,48.10
2023-02-06T03:52:55.180Z,46.90
2023-02-06T03:53:55.170Z,56.40
2023-02-06T03:54:55.165Z,50.20
2023-02-06T03:55:55.146Z,51.00
2023-02-06T03:56:55.139Z,50.00
2023-02-06T03:57:55.153Z,48.00
2023-02-06T03:58:55.120Z,43.90
2023-02-06T03:59:55.106Z,45.90
2023-02-06T04:00:55.320Z,44.80
2023-02-06T04:01:55.100Z,45.80
2023-02-06T04:02:55.073Z,46.80
2023-02-06T04:03:55.063Z,44.80
2023-02-06T04:04:55.049Z,51.30
2023-02-06T04:05:55.039Z,39.80
2023-02-06T04:06:55.028Z,36.40
2023-02-06T04:07:55.016Z,44.90
2023-02-06T04:08:55.007Z,38.50
2023-02-06T04:09:54.999Z,36.70
2023-02-06T04:10:54.984Z,49.60
2023-02-06T04:11:54.976Z,47.20
2023-02-06T04:12:54.960Z,45.90
2023-02-06T04:13:54.976Z,46.40
2023-02-06T04:14:54.940Z,43.20
2023-02-06T04:15:54.928Z,47.30
2023-02-06T04:16:54.918Z,48.10
2023-02-06T04:18:00.437Z,54.50
2023-02-06T04:18:55.925Z,52.80
2023-02-06T04:19:54.886Z,60.20
2023-02-06T04:20:54.882Z,81.80
2023-02-06T04:21:54.861Z,81.80
2023-02-06T04:22:54.856Z,96.00
2023-02-06T04:23:54.842Z,86.70
2023-02-06T04:24:54.832Z,202.50
2023-02-06T04:25:54.820Z,197.10
2023-02-06T04:26:54.818Z,171.90
2023-02-06T04:27:54.820Z,163.70
2023-02-06T04:28:54.821Z,186.50
2023-02-06T04:29:54.819Z,161.20
2023-02-06T04:30:54.845Z,234.00
2023-02-06T04:31:54.756Z,164.70
2023-02-06T04:32:54.747Z,214.30
2023-02-06T04:33:54.728Z,99.60
2023-02-06T04:34:54.722Z,197.30
2023-02-06T04:35:54.729Z,203.00
2023-02-06T04:36:54.697Z,209.90
2023-02-06T04:37:54.684Z,172.10
2023-02-06T04:38:54.674Z,205.80
2023-02-06T04:39:54.665Z,221.90
2023-02-06T04:40:54.656Z,137.00
2023-02-06T04:41:54.654Z,157.80
2023-02-06T04:42:54.628Z,159.70
2023-02-06T04:43:54.643Z,205.90
2023-02-06T04:44:54.606Z,239.60
2023-02-06T04:45:54.683Z,228.20
2023-02-06T04:46:54.592Z,228.60
2023-02-06T04:47:54.569Z,257.20
2023-02-06T04:48:54.558Z,224.70
2023-02-06T04:49:54.548Z,241.10
2023-02-06T04:50:54.535Z,193.50
2023-02-06T04:51:54.526Z,175.70
2023-02-06T04:52:54.511Z,170.50
2023-02-06T04:53:54.506Z,146.60
2023-02-06T04:54:54.490Z,129.90
2023-02-06T04:55:54.482Z,150.30
2023-02-06T04:56:54.467Z,284.60
2023-02-06T04:57:54.465Z,230.70
2023-02-06T04:58:54.448Z,215.00
2023-02-06T04:59:54.453Z,198.20
2023-02-06T05:00:54.429Z,194.10
2023-02-06T05:01:54.489Z,220.60
2023-02-06T05:02:54.498Z,238.60
2023-02-06T05:03:54.391Z,376.40
2023-02-06T05:04:54.377Z,169.60
2023-02-06T05:05:54.368Z,237.40
2023-02-06T05:06:54.360Z,272.20
2023-02-06T05:07:54.364Z,302.80
2023-02-06T05:08:54.342Z,172.00
2023-02-06T05:09:54.388Z,275.10
2023-02-06T05:10:54.419Z,282.10
2023-02-06T05:11:54.518Z,233.60
2023-02-06T05:12:54.399Z,181.00
2023-02-06T05:13:54.454Z,215.70
2023-02-06T05:14:54.594Z,269.50
2023-02-06T05:15:54.286Z,283.60
2023-02-06T05:16:54.246Z,229.80
2023-02-06T05:17:54.259Z,167.50
2023-02-06T05:18:54.399Z,113.90
2023-02-06T05:19:54.208Z,103.40
2023-02-06T05:20:54.194Z,184.70
2023-02-06T05:21:54.192Z,260.00
2023-02-06T05:22:54.170Z,268.10
2023-02-06T05:23:54.169Z,243.90
2023-02-06T05:24:54.150Z,268.60
2023-02-06T05:25:54.142Z,202.80
2023-02-06T05:26:54.128Z,312.50
2023-02-06T05:27:54.170Z,243.40
2023-02-06T05:28:54.105Z,200.70
2023-02-06T05:29:54.099Z,182.80
2023-02-06T05:30:54.190Z,217.40
2023-02-06T05:31:54.134Z,260.20
2023-02-06T05:32:54.059Z,183.80
2023-02-06T05:33:54.082Z,270.90
2023-02-06T05:34:54.047Z,146.80
2023-02-06T05:35:54.030Z,204.90
2023-02-06T05:36:54.018Z,214.20
2023-02-06T05:37:54.018Z,207.20
2023-02-06T05:38:53.995Z,312.70
2023-02-06T05:39:53.984Z,316.20
2023-02-06T05:40:53.977Z,311.10
2023-02-06T05:41:53.966Z,281.50
2023-02-06T05:42:53.955Z,309.80
2023-02-06T05:43:53.948Z,318.90
2023-02-06T05:44:53.927Z,295.60
2023-02-06T05:45:53.927Z,274.30
2023-02-06T05:46:53.909Z,218.70
2023-02-06T05:47:53.899Z,241.80
2023-02-06T05:48:53.886Z,233.00
2023-02-06T05:49:53.898Z,218.90
2023-02-06T05:50:53.932Z,186.10
2023-02-06T05:51:53.856Z,116.00
2023-02-06T05:52:53.847Z,178.30
2023-02-06T05:53:53.887Z,133.50
2023-02-06T05:54:53.925Z,105.50
2023-02-06T05:55:53.810Z,120.50
2023-02-06T05:56:53.794Z,198.60
2023-02-06T05:57:53.793Z,209.10
2023-02-06T05:58:53.932Z,313.80
2023-02-06T05:59:53.822Z,273.80
2023-02-06T06:00:53.758Z,296.90
2023-02-06T06:01:53.898Z,303.10
2023-02-06T06:02:53.834Z,304.80
2023-02-06T06:03:53.959Z,403.90
2023-02-06T06:04:53.781Z,268.30
2023-02-06T06:05:53.726Z,311.50
2023-02-06T06:06:53.703Z,208.90
2023-02-06T06:07:53.682Z,214.50
2023-02-06T06:08:53.673Z,320.40
2023-02-06T06:09:53.658Z,268.80
2023-02-06T06:10:53.651Z,252.00
2023-02-06T06:11:53.638Z,210.40
2023-02-06T06:12:53.627Z,268.70
2023-02-06T06:13:53.615Z,386.40
2023-02-06T06:14:53.602Z,240.30
2023-02-06T06:15:53.619Z,192.50
2023-02-06T06:16:53.586Z,259.70
2023-02-06T06:17:53.579Z,220.40
2023-02-06T06:18:53.563Z,259.30
2023-02-06T06:19:53.556Z,327.30
2023-02-06T06:20:53.562Z,288.30
2023-02-06T06:21:53.549Z,293.70
2023-02-06T06:22:53.517Z,229.10
2023-02-06T06:23:53.508Z,242.40
2023-02-06T06:24:53.506Z,305.30
2023-02-06T06:25:53.506Z,309.20
2023-02-06T06:26:53.512Z,339.50
2023-02-06T06:27:53.476Z,274.90
2023-02-06T06:28:53.454Z,190.50
2023-02-06T06:29:53.451Z,187.90
2023-02-06T06:30:53.457Z,161.10
2023-02-06T06:31:53.447Z,127.30
2023-02-06T06:32:53.402Z,219.10
2023-02-06T06:33:53.395Z,112.50
2023-02-06T06:34:53.401Z,123.70
2023-02-06T06:35:53.376Z,99.30
2023-02-06T06:36:53.361Z,87.30
2023-02-06T06:37:53.379Z,116.00
2023-02-06T06:38:53.338Z,165.10
2023-02-06T06:39:53.330Z,233.60
2023-02-06T06:40:53.316Z,187.90
2023-02-06T06:41:53.317Z,125.40
2023-02-06T06:42:53.291Z,133.20
2023-02-06T06:43:53.287Z,124.30
2023-02-06T06:44:53.270Z,127.70
2023-02-06T06:45:53.321Z,173.60
2023-02-06T06:46:53.247Z,166.40
2023-02-06T06:47:53.351Z,164.00
2023-02-06T06:48:53.232Z,147.20
2023-02-06T06:49:53.226Z,156.60
2023-02-06T06:50:53.205Z,186.70
2023-02-06T06:51:53.194Z,171.70
2023-02-06T06:52:53.195Z,166.90
2023-02-06T06:53:53.250Z,119.10
2023-02-06T06:54:53.206Z,109.40
2023-02-06T06:55:53.152Z,109.30
2023-02-06T06:56:53.138Z,121.70
2023-02-06T06:57:53.130Z,165.80
2023-02-06T06:58:53.114Z,138.20
2023-02-06T06:59:53.110Z,196.20
2023-02-06T07:00:53.115Z,177.50
2023-02-06T07:01:53.083Z,173.50
2023-02-06T07:02:53.114Z,184.70
2023-02-06T07:03:53.063Z,235.20
2023-02-06T07:04:53.050Z,193.80
2023-02-06T07:05:53.422Z,263.50
2023-02-06T07:06:53.027Z,66.40
2023-02-06T07:07:53.018Z,61.50
2023-02-06T07:08:53.008Z,63.60
2023-02-06T07:09:53.083Z,58.80
2023-02-06T07:10:52.983Z,81.40
2023-02-06T07:11:52.975Z,149.30
2023-02-06T07:12:52.964Z,150.60
2023-02-06T07:13:52.950Z,134.00
2023-02-06T07:14:52.938Z,129.70
2023-02-06T07:15:52.930Z,130.60
2023-02-06T07:16:52.938Z,152.80
2023-02-06T07:17:52.907Z,201.80
2023-02-06T07:18:52.921Z,215.00
2023-02-06T07:19:52.887Z,173.50
2023-02-06T07:20:52.871Z,188.20
2023-02-06T07:21:52.865Z,183.70
2023-02-06T07:22:52.851Z,122.20
2023-02-06T07:23:52.840Z,125.30
2023-02-06T07:24:54.425Z,127.90
2023-02-06T07:25:52.843Z,127.90
2023-02-06T07:26:52.809Z,129.90
2023-02-06T07:27:52.868Z,107.60
2023-02-06T07:28:52.854Z,115.30
2023-02-06T07:29:52.777Z,92.70
2023-02-06T07:30:52.827Z,123.90
2023-02-06T07:31:52.843Z,118.60
2023-02-06T07:32:52.743Z,122.60
2023-02-06T07:33:52.730Z,163.60
2023-02-06T07:34:52.723Z,150.10
2023-02-06T07:35:52.707Z,168.20
2023-02-06T07:36:52.698Z,134.80
2023-02-06T07:37:52.685Z,129.50
2023-02-06T07:38:52.674Z,134.00
2023-02-06T07:39:52.660Z,130.70
2023-02-06T07:40:52.651Z,140.00
2023-02-06T07:41:52.724Z,138.20
2023-02-06T07:42:52.635Z,128.70
2023-02-06T07:43:52.626Z,116.70
2023-02-06T07:44:52.755Z,117.90
2023-02-06T07:45:52.617Z,140.90
2023-02-06T07:46:52.595Z,132.60
2023-02-06T07:47:52.576Z,124.80
2023-02-06T07:48:52.565Z,151.00
2023-02-06T07:49:52.558Z,129.40
2023-02-06T07:50:52.547Z,132.20
2023-02-06T07:51:52.544Z,131.70
2023-02-06T07:52:52.538Z,121.40
2023-02-06T07:53:52.508Z,122.50
2023-02-06T07:54:52.506Z,128.60
2023-02-06T07:55:52.488Z,130.70
2023-02-06T07:56:52.473Z,118.80
2023-02-06T07:57:52.484Z,112.40
2023-02-06T07:58:52.455Z,151.10
2023-02-06T07:59:52.444Z,114.00
2023-02-06T08:00:52.450Z,110.10
2023-02-06T08:01:52.428Z,126.50
2023-02-06T08:02:52.410Z,111.40
2023-02-06T08:03:52.406Z,142.80
2023-02-06T08:04:52.391Z,132.10
2023-02-06T08:05:52.380Z,131.40
2023-02-06T08:06:52.364Z,121.60
2023-02-06T08:07:52.355Z,114.60
2023-02-06T08:08:52.344Z,133.30
2023-02-06T08:09:52.332Z,122.10
2023-02-06T08:10:52.319Z,110.40
2023-02-06T08:11:52.307Z,100.50
2023-02-06T08:12:52.296Z,114.70
2023-02-06T08:13:52.315Z,116.70
2023-02-06T08:14:52.274Z,136.40
2023-02-06T08:15:52.298Z,112.90
2023-02-06T08:16:52.314Z,136.10
2023-02-06T08:17:52.246Z,122.60
2023-02-06T08:18:52.240Z,161.00
2023-02-06T08:19:52.221Z,138.20
2023-02-06T08:20:52.206Z,149.90
2023-02-06T08:21:52.196Z,130.50
2023-02-06T08:22:52.186Z,132.60
2023-02-06T08:23:52.174Z,119.60
2023-02-06T08:24:52.164Z,135.50
2023-02-06T08:25:52.150Z,117.60
2023-02-06T08:26:52.177Z,114.60
2023-02-06T08:27:52.177Z,100.40
2023-02-06T08:28:52.116Z,103.00
2023-02-06T08:29:52.133Z,109.40
2023-02-06T08:30:52.199Z,100.20
2023-02-06T08:31:52.209Z,121.60
2023-02-06T08:32:52.074Z,107.70
2023-02-06T08:33:52.066Z,95.50
2023-02-06T08:34:52.058Z,93.60
2023-02-06T08:35:52.043Z,77.20
2023-02-06T08:36:52.035Z,94.70
2023-02-06T08:37:52.016Z,111.80
2023-02-06T08:38:52.004Z,113.60
2023-02-06T08:39:51.999Z,93.80
2023-02-06T08:40:51.981Z,108.20
2023-02-06T08:41:51.971Z,92.60
2023-02-06T08:42:51.973Z,111.10
2023-02-06T08:43:51.951Z,120.20
2023-02-06T08:44:51.948Z,91.40
2023-02-06T08:45:51.976Z,102.80
2023-02-06T08:46:58.794Z,112.70
2023-02-06T08:47:52.936Z,115.40
2023-02-06T08:48:51.897Z,127.60
2023-02-06T08:49:51.883Z,115.50
2023-02-06T08:50:51.877Z,129.90
2023-02-06T08:51:51.905Z,121.10
2023-02-06T08:52:51.892Z,143.70
2023-02-06T08:53:51.861Z,137.70
2023-02-06T08:54:51.858Z,146.90
2023-02-06T08:55:51.847Z,153.30
2023-02-06T08:56:51.810Z,145.10
2023-02-06T08:57:51.796Z,176.10
2023-02-06T08:58:51.783Z,159.70
2023-02-06T08:59:51.772Z,161.20
2023-02-06T09:00:51.763Z,164.70
2023-02-06T09:01:51.838Z,187.50
2023-02-06T09:02:51.834Z,194.60
2023-02-06T09:03:51.727Z,189.50
2023-02-06T09:04:51.852Z,192.00
2023-02-06T09:05:54.052Z,144.50
2023-02-06T09:06:51.690Z,150.90
2023-02-06T09:07:51.686Z,171.60
2023-02-06T09:08:51.670Z,145.50
2023-02-06T09:09:51.660Z,144.40
2023-02-06T09:10:51.647Z,165.40
2023-02-06T09:11:51.635Z,188.20
2023-02-06T09:12:51.631Z,159.30
2023-02-06T09:13:51.617Z,131.00
2023-02-06T09:14:51.614Z,119.50
2023-02-06T09:15:51.626Z,123.90
2023-02-06T09:16:51.585Z,127.20
2023-02-06T09:17:51.595Z,128.10
2023-02-06T09:18:53.926Z,121.20
2023-02-06T09:19:51.559Z,144.60
2023-02-06T09:20:51.539Z,128.60
2023-02-06T09:21:51.523Z,121.80
2023-02-06T09:22:51.509Z,135.00
2023-02-06T09:23:51.498Z,140.70
2023-02-06T09:24:51.486Z,142.90
2023-02-06T09:25:51.475Z,128.60
2023-02-06T09:26:59.957Z,141.20
2023-02-06T09:27:52.505Z,154.20
2023-02-06T09:28:51.441Z,155.70
2023-02-06T09:29:51.433Z,163.30
2023-02-06T09:30:51.551Z,145.70
2023-02-06T09:31:51.412Z,151.00
2023-02-06T09:32:51.398Z,127.80
2023-02-06T09:33:51.412Z,221.90
2023-02-06T09:34:51.376Z,150.00
2023-02-06T09:35:51.361Z,132.60
2023-02-06T09:36:51.352Z,170.00
2023-02-06T09:37:51.344Z,139.50
2023-02-06T09:38:51.334Z,176.90
2023-02-06T09:39:51.320Z,169.70
2023-02-06T09:40:51.307Z,191.40
2023-02-06T09:41:51.296Z,171.40
2023-02-06T09:42:51.283Z,150.30
2023-02-06T09:43:51.280Z,173.00
2023-02-06T09:44:51.284Z,213.60
2023-02-06T09:45:51.249Z,168.10
2023-02-06T09:46:51.249Z,222.80
2023-02-06T09:47:51.228Z,213.20
2023-02-06T09:48:51.222Z,267.90
2023-02-06T09:49:51.253Z,167.80
2023-02-06T09:50:51.195Z,263.50
2023-02-06T09:51:51.184Z,247.50
2023-02-06T09:52:51.177Z,203.90
2023-02-06T09:53:51.161Z,167.90
2023-02-06T09:54:51.155Z,194.80
2023-02-06T09:55:51.137Z,212.40
2023-02-06T09:56:51.133Z,229.70
2023-02-06T09:57:51.130Z,216.80
2023-02-06T09:58:51.130Z,211.80
2023-02-06T09:59:51.094Z,202.00
2023-02-06T10:00:51.089Z,272.10
2023-02-06T10:01:51.103Z,201.60
2023-02-06T10:02:51.066Z,211.00
2023-02-06T10:03:51.117Z,187.80
2023-02-06T10:04:51.040Z,205.70
2023-02-06T10:05:51.050Z,231.20
2023-02-06T10:06:51.026Z,196.30
2023-02-06T10:07:51.037Z,205.30
2023-02-06T10:08:51.004Z,258.20
2023-02-06T10:09:50.997Z,235.10
2023-02-06T10:10:50.973Z,216.30
2023-02-06T10:11:50.961Z,284.30
2023-02-06T10:12:50.952Z,247.70
2023-02-06T10:13:50.981Z,243.00
2023-02-06T10:14:50.926Z,250.70
2023-02-06T10:15:50.993Z,245.00
2023-02-06T10:16:50.909Z,317.20
2023-02-06T10:17:50.893Z,346.10
2023-02-06T10:18:50.893Z,269.40
2023-02-06T10:19:50.870Z,274.20
2023-02-06T10:20:50.861Z,299.30
2023-02-06T10:21:51.002Z,383.50
2023-02-06T10:22:50.844Z,196.60
2023-02-06T10:23:50.845Z,245.70
2023-02-06T10:24:50.814Z,280.70
2023-02-06T10:25:50.803Z,226.20
2023-02-06T10:26:50.793Z,317.50
2023-02-06T10:27:50.821Z,235.70
2023-02-06T10:28:50.778Z,271.70
2023-02-06T10:29:50.760Z,324.00
2023-02-06T10:30:50.774Z,277.80
2023-02-06T10:31:50.771Z,218.00
2023-02-06T10:32:50.730Z,220.30
2023-02-06T10:33:50.722Z,220.10
2023-02-06T10:34:50.709Z,204.70
2023-02-06T10:35:50.699Z,213.70
2023-02-06T10:36:50.685Z,199.40
2023-02-06T10:37:50.698Z,206.60
2023-02-06T10:38:50.676Z,188.50
2023-02-06T10:39:50.651Z,182.70
2023-02-06T10:40:50.648Z,253.30
2023-02-06T10:41:50.633Z,214.80
2023-02-06T10:42:50.639Z,306.60
2023-02-06T10:43:50.608Z,225.50
2023-02-06T10:44:51.561Z,158.90
2023-02-06T10:45:50.737Z,178.00
2023-02-06T10:46:50.668Z,138.80
2023-02-06T10:47:50.565Z,180.10
2023-02-06T10:48:51.664Z,144.00
2023-02-06T10:49:50.582Z,199.40
2023-02-06T10:50:50.533Z,262.70
2023-02-06T10:51:50.528Z,158.60
2023-02-06T10:52:50.514Z,148.90
2023-02-06T10:53:50.552Z,106.40
2023-02-06T10:54:50.490Z,130.90
2023-02-06T10:55:51.003Z,112.10
2023-02-06T10:56:50.478Z,136.40
2023-02-06T10:57:50.455Z,115.40
2023-02-06T10:58:50.443Z,95.10
2023-02-06T10:59:52.625Z,100.20
2023-02-06T11:00:50.496Z,157.40
2023-02-06T11:01:50.459Z,116.90
2023-02-06T11:03:01.307Z,126.60
2023-02-06T11:03:51.416Z,102.10
2023-02-06T11:04:50.376Z,102.00
2023-02-06T11:05:50.366Z,87.00
2023-02-06T11:06:50.358Z,130.80
2023-02-06T11:07:50.338Z,97.80
2023-02-06T11:08:50.340Z,89.10
2023-02-06T11:09:50.364Z,77.30
2023-02-06T11:10:50.336Z,116.70
2023-02-06T11:11:50.296Z,126.70
2023-02-06T11:12:50.302Z,121.10
2023-02-06T11:13:50.280Z,102.00
2023-02-06T11:14:50.264Z,99.90
2023-02-06T11:15:50.254Z,137.20
2023-02-06T11:16:50.241Z,76.10
2023-02-06T11:17:50.230Z,76.40
2023-02-06T11:18:50.229Z,129.10
2023-02-06T11:19:50.213Z,72.90
2023-02-06T11:20:50.196Z,105.60
2023-02-06T11:21:50.183Z,77.50
2023-02-06T11:22:53.063Z,100.30
2023-02-06T11:23:50.160Z,79.10
2023-02-06T11:24:50.151Z,86.10
2023-02-06T11:25:50.165Z,83.20
2023-02-06T11:26:50.128Z,84.00
2023-02-06T11:27:50.155Z,88.20
2023-02-06T11:28:50.116Z,76.60
2023-02-06T11:29:52.093Z,89.20
2023-02-06T11:30:50.110Z,73.30
2023-02-06T11:31:50.114Z,78.50
2023-02-06T11:33:03.641Z,86.60
2023-02-06T11:33:51.078Z,63.70
2023-02-06T11:34:50.037Z,98.90
2023-02-06T11:35:50.030Z,67.10
2023-02-06T11:36:50.017Z,56.20
2023-02-06T11:37:50.012Z,54.10
2023-02-06T11:38:49.993Z,49.80
2023-02-06T11:39:49.980Z,50.40
2023-02-06T11:40:50.148Z,63.40
2023-02-06T11:41:50.007Z,48.40
2023-02-06T11:42:49.948Z,49.50
2023-02-06T11:43:49.932Z,54.20
2023-02-06T11:44:49.925Z,41.90
2023-02-06T11:45:49.958Z,52.30
2023-02-06T11:46:49.901Z,58.30
2023-02-06T11:47:49.890Z,44.40
2023-02-06T11:48:49.877Z,63.50
2023-02-06T11:49:49.868Z,97.50
2023-02-06T11:50:49.958Z,55.20
2023-02-06T11:51:49.850Z,59.70
2023-02-06T11:52:49.835Z,60.50
2023-02-06T11:53:49.822Z,52.90
2023-02-06T11:54:49.814Z,54.80
2023-02-06T11:55:49.800Z,49.00
2023-02-06T11:56:49.810Z,51.60
2023-02-06T11:57:49.799Z,53.20
2023-02-06T11:58:49.774Z,45.70
2023-02-06T11:59:49.755Z,45.40
2023-02-06T12:00:49.747Z,58.30
2023-02-06T12:01:49.738Z,51.10
2023-02-06T12:02:49.727Z,47.10
2023-02-06T12:03:49.711Z,55.30
2023-02-06T12:04:49.726Z,60.70
2023-02-06T12:05:49.699Z,48.00
2023-02-06T12:06:49.681Z,45.10
2023-02-06T12:07:49.670Z,48.50
2023-02-06T12:08:49.660Z,42.30
2023-02-06T12:09:49.650Z,50.10
2023-02-06T12:10:49.635Z,39.10
2023-02-06T12:11:49.625Z,42.70
2023-02-06T12:12:49.629Z,35.40
2023-02-06T12:13:49.631Z,39.50
2023-02-06T12:14:49.590Z,41.90
2023-02-06T12:15:50.096Z,51.80
2023-02-06T12:16:49.637Z,39.70
2023-02-06T12:17:49.561Z,62.60
2023-02-06T12:18:49.552Z,37.60
2023-02-06T12:19:49.541Z,39.30
2023-02-06T12:20:49.525Z,40.10
2023-02-06T12:21:49.549Z,31.60
2023-02-06T12:22:49.510Z,37.60
2023-02-06T12:23:49.498Z,36.60
2023-02-06T12:24:49.485Z,27.40
2023-02-06T12:25:49.473Z,34.40
2023-02-06T12:26:49.462Z,37.20
2023-02-06T12:27:49.493Z,31.50
2023-02-06T12:28:49.455Z,33.80
2023-02-06T12:29:49.476Z,31.70
2023-02-06T12:30:49.491Z,30.50
2023-02-06T12:31:49.551Z,32.50
2023-02-06T12:32:49.514Z,33.40
2023-02-06T12:33:49.523Z,38.80
2023-02-06T12:34:49.539Z,31.90
2023-02-06T12:35:49.531Z,31.50
2023-02-06T12:36:49.508Z,28.40
2023-02-06T12:37:49.327Z,32.00
2023-02-06T12:38:49.349Z,32.90
2023-02-06T12:39:49.307Z,31.60
2023-02-06T12:40:49.299Z,29.80